IBE28Y TJSJ-MDSD
Flight info
| Callsign | IBE28Y |
|---|---|
| Flight time | 0h 43m |
| Altitude | 28000 |
| Route | SJU RTE2 BQN B520 GOSUB GOSUB2G |
| Aircraft | A346/H-SDE2E3FGHIJ3J4J5M1RWXY/LB1D1 |
Departure
| Time | 2026-05-06 19:24 |
|---|---|
| Airport | Luis Munoz Marin International Airport (TJSJ) |
Arrival
| Time | 2026-05-06 20:08 |
|---|---|
| Airport | Las Américas International Airport (MDSD) |
| Time | Latitude | Longitude | Altitude | Speed | Heading |
|---|---|---|---|---|---|
| 2026-05-06 18:40 | 18.43922 | -66.00182 | 30 ft | 0 kts | 200° |
| 2026-05-06 19:14 | 18.43937 | -66.00177 | 31 ft | 4 kts | 200° |
| 2026-05-06 19:14 | 18.43961 | -66.00167 | 31 ft | 2 kts | 200° |
| 2026-05-06 19:15 | 18.43982 | -66.00157 | 31 ft | 4 kts | 213° |
| 2026-05-06 19:15 | 18.43999 | -66.00141 | 31 ft | 4 kts | 237° |
| 2026-05-06 19:15 | 18.44008 | -66.00118 | 31 ft | 4 kts | 261° |
| 2026-05-06 19:15 | 18.44011 | -66.00090 | 31 ft | 3 kts | 264° |
| 2026-05-06 19:16 | 18.44011 | -66.00085 | 31 ft | 0 kts | 263° |
| 2026-05-06 19:18 | 18.44011 | -66.00087 | 31 ft | 1 kts | 263° |
| 2026-05-06 19:18 | 18.44011 | -66.00109 | 31 ft | 4 kts | 279° |
| 2026-05-06 19:18 | 18.44035 | -66.00139 | 29 ft | 7 kts | 323° |
| 2026-05-06 19:19 | 18.44087 | -66.00157 | 27 ft | 10 kts | 343° |
| 2026-05-06 19:19 | 18.44159 | -66.00190 | 29 ft | 13 kts | 330° |
| 2026-05-06 19:19 | 18.44230 | -66.00249 | 30 ft | 13 kts | 288° |
| 2026-05-06 19:19 | 18.44219 | -66.00346 | 30 ft | 15 kts | 251° |
| 2026-05-06 19:20 | 18.44172 | -66.00460 | 27 ft | 18 kts | 238° |
| 2026-05-06 19:20 | 18.44095 | -66.00581 | 27 ft | 21 kts | 244° |
| 2026-05-06 19:20 | 18.44030 | -66.00733 | 28 ft | 24 kts | 246° |
| 2026-05-06 19:20 | 18.43958 | -66.00904 | 27 ft | 27 kts | 246° |
| 2026-05-06 19:21 | 18.43880 | -66.01089 | 27 ft | 29 kts | 246° |
| 2026-05-06 19:21 | 18.43806 | -66.01268 | 30 ft | 21 kts | 256° |
| 2026-05-06 19:21 | 18.43796 | -66.01379 | 27 ft | 16 kts | 259° |
| 2026-05-06 19:21 | 18.43771 | -66.01453 | 27 ft | 0 kts | 246° |
| 2026-05-06 19:22 | 18.43768 | -66.01463 | 28 ft | 3 kts | 247° |
| 2026-05-06 19:22 | 18.43762 | -66.01493 | 30 ft | 5 kts | 275° |
| 2026-05-06 19:22 | 18.43782 | -66.01540 | 29 ft | 9 kts | 306° |
| 2026-05-06 19:22 | 18.43833 | -66.01554 | 30 ft | 8 kts | 45° |
| 2026-05-06 19:23 | 18.43871 | -66.01495 | 27 ft | 11 kts | 63° |
| 2026-05-06 19:23 | 18.43907 | -66.01410 | 28 ft | 14 kts | 67° |
| 2026-05-06 19:23 | 18.43991 | -66.01202 | 28 ft | 64 kts | 66° |
| 2026-05-06 19:23 | 18.44269 | -66.00518 | 26 ft | 136 kts | 67° |
| 2026-05-06 19:24 | 18.44727 | -65.99412 | 106 ft | 187 kts | 70° |
| 2026-05-06 19:24 | 18.45268 | -65.98149 | 906 ft | 187 kts | 69° |
| 2026-05-06 19:24 | 18.45793 | -65.96916 | 1890 ft | 181 kts | 71° |
| 2026-05-06 19:24 | 18.46008 | -65.95631 | 2459 ft | 183 kts | 107° |
| 2026-05-06 19:25 | 18.45365 | -65.94447 | 2876 ft | 195 kts | 135° |
| 2026-05-06 19:25 | 18.44162 | -65.93750 | 3263 ft | 214 kts | 169° |
| 2026-05-06 19:25 | 18.42626 | -65.94010 | 3598 ft | 242 kts | 208° |
| 2026-05-06 19:25 | 18.41436 | -65.95360 | 3988 ft | 269 kts | 244° |
| 2026-05-06 19:26 | 18.41179 | -65.97336 | 4830 ft | 277 kts | 272° |
| 2026-05-06 19:26 | 18.41441 | -65.99344 | 5861 ft | 276 kts | 277° |
| 2026-05-06 19:26 | 18.41755 | -66.01356 | 6737 ft | 280 kts | 276° |
| 2026-05-06 19:26 | 18.42037 | -66.03407 | 7544 ft | 285 kts | 276° |
| 2026-05-06 19:27 | 18.42287 | -66.05492 | 8386 ft | 288 kts | 276° |
| 2026-05-06 19:27 | 18.42524 | -66.07596 | 9254 ft | 291 kts | 276° |
| 2026-05-06 19:27 | 18.42752 | -66.09731 | 10109 ft | 295 kts | 276° |
| 2026-05-06 19:27 | 18.42978 | -66.11919 | 10747 ft | 306 kts | 276° |
| 2026-05-06 19:28 | 18.43209 | -66.14212 | 11178 ft | 324 kts | 276° |
| 2026-05-06 19:28 | 18.43446 | -66.16612 | 11566 ft | 342 kts | 276° |
| 2026-05-06 19:28 | 18.43695 | -66.19174 | 11936 ft | 360 kts | 276° |
| 2026-05-06 19:28 | 18.43954 | -66.21862 | 12328 ft | 376 kts | 276° |
| 2026-05-06 19:29 | 18.44220 | -66.24632 | 13026 ft | 382 kts | 276° |
| 2026-05-06 19:29 | 18.44488 | -66.27428 | 13877 ft | 384 kts | 276° |
| 2026-05-06 19:29 | 18.44755 | -66.30241 | 14595 ft | 387 kts | 276° |
| 2026-05-06 19:29 | 18.45024 | -66.33076 | 15316 ft | 390 kts | 276° |
| 2026-05-06 19:30 | 18.45296 | -66.35944 | 16044 ft | 394 kts | 276° |
| 2026-05-06 19:30 | 18.45568 | -66.38824 | 16853 ft | 395 kts | 276° |
| 2026-05-06 19:30 | 18.45842 | -66.41718 | 17605 ft | 399 kts | 276° |
| 2026-05-06 19:30 | 18.46119 | -66.44644 | 18348 ft | 402 kts | 276° |
| 2026-05-06 19:31 | 18.46398 | -66.47597 | 18978 ft | 407 kts | 276° |
| 2026-05-06 19:31 | 18.46680 | -66.50582 | 19582 ft | 411 kts | 277° |
| 2026-05-06 19:31 | 18.47247 | -66.56610 | 20780 ft | 420 kts | 277° |
| 2026-05-06 19:32 | 18.47528 | -66.59693 | 21360 ft | 424 kts | 276° |
| 2026-05-06 19:32 | 18.47704 | -66.62821 | 21966 ft | 429 kts | 274° |
| 2026-05-06 19:32 | 18.47845 | -66.65978 | 22543 ft | 433 kts | 274° |
| 2026-05-06 19:32 | 18.47981 | -66.69170 | 23086 ft | 438 kts | 274° |
| 2026-05-06 19:33 | 18.48118 | -66.72395 | 23661 ft | 441 kts | 274° |
| 2026-05-06 19:33 | 18.48257 | -66.75625 | 24292 ft | 440 kts | 274° |
| 2026-05-06 19:33 | 18.48394 | -66.78834 | 25019 ft | 436 kts | 274° |
| 2026-05-06 19:33 | 18.48530 | -66.82020 | 25780 ft | 433 kts | 274° |
| 2026-05-06 19:34 | 18.48665 | -66.85180 | 26527 ft | 430 kts | 274° |
| 2026-05-06 19:34 | 18.48807 | -66.88328 | 27219 ft | 429 kts | 274° |
| 2026-05-06 19:34 | 18.48954 | -66.91490 | 27783 ft | 431 kts | 274° |
| 2026-05-06 19:34 | 18.49102 | -66.94682 | 28045 ft | 433 kts | 274° |
| 2026-05-06 19:35 | 18.49393 | -67.01041 | 28069 ft | 434 kts | 274° |
| 2026-05-06 19:35 | 18.49677 | -67.07357 | 28077 ft | 434 kts | 274° |
| 2026-05-06 19:36 | 18.49778 | -67.13723 | 28077 ft | 434 kts | 270° |
| 2026-05-06 19:36 | 18.49657 | -67.20091 | 28078 ft | 433 kts | 270° |
| 2026-05-06 19:37 | 18.49528 | -67.26465 | 28073 ft | 434 kts | 270° |
| 2026-05-06 19:37 | 18.49421 | -67.31748 | 28062 ft | 434 kts | 270° |
| 2026-05-06 19:38 | 18.49269 | -67.39140 | 28051 ft | 433 kts | 270° |
| 2026-05-06 19:38 | 18.49138 | -67.45486 | 28044 ft | 433 kts | 270° |
| 2026-05-06 19:39 | 18.49004 | -67.51833 | 28036 ft | 433 kts | 270° |
| 2026-05-06 19:39 | 18.48866 | -67.58183 | 28035 ft | 432 kts | 270° |
| 2026-05-06 19:40 | 18.48728 | -67.64523 | 28034 ft | 432 kts | 270° |
| 2026-05-06 19:40 | 18.48589 | -67.70865 | 28035 ft | 432 kts | 270° |
| 2026-05-06 19:41 | 18.48447 | -67.77217 | 28034 ft | 432 kts | 270° |
| 2026-05-06 19:41 | 18.48303 | -67.83553 | 28035 ft | 431 kts | 270° |
| 2026-05-06 19:42 | 18.48157 | -67.89876 | 28030 ft | 431 kts | 270° |
| 2026-05-06 19:42 | 18.48009 | -67.96215 | 28031 ft | 431 kts | 270° |
| 2026-05-06 19:43 | 18.47934 | -67.99381 | 27980 ft | 432 kts | 270° |
| 2026-05-06 19:43 | 18.47863 | -68.02556 | 27720 ft | 430 kts | 270° |
| 2026-05-06 19:43 | 18.47798 | -68.05666 | 27475 ft | 428 kts | 270° |
| 2026-05-06 19:43 | 18.47732 | -68.08802 | 27213 ft | 427 kts | 270° |
| 2026-05-06 19:44 | 18.47667 | -68.11923 | 26868 ft | 425 kts | 270° |
| 2026-05-06 19:44 | 18.47602 | -68.15040 | 26383 ft | 425 kts | 270° |
| 2026-05-06 19:44 | 18.47535 | -68.18162 | 25788 ft | 426 kts | 270° |
| 2026-05-06 19:44 | 18.47468 | -68.21297 | 25140 ft | 429 kts | 270° |
| 2026-05-06 19:45 | 18.47400 | -68.24450 | 24492 ft | 431 kts | 270° |
| 2026-05-06 19:45 | 18.47332 | -68.27622 | 23799 ft | 434 kts | 270° |
| 2026-05-06 19:45 | 18.47262 | -68.30817 | 23162 ft | 434 kts | 270° |
| 2026-05-06 19:45 | 18.47192 | -68.33985 | 22664 ft | 430 kts | 270° |
| 2026-05-06 19:46 | 18.47121 | -68.37122 | 22204 ft | 425 kts | 270° |
| 2026-05-06 19:46 | 18.47051 | -68.40220 | 21763 ft | 420 kts | 270° |
| 2026-05-06 19:46 | 18.46982 | -68.43283 | 21318 ft | 415 kts | 270° |
| 2026-05-06 19:46 | 18.46913 | -68.46307 | 20854 ft | 411 kts | 270° |
| 2026-05-06 19:47 | 18.46844 | -68.49304 | 20427 ft | 407 kts | 270° |
| 2026-05-06 19:47 | 18.46775 | -68.52275 | 20005 ft | 403 kts | 270° |
| 2026-05-06 19:47 | 18.46708 | -68.55182 | 19596 ft | 399 kts | 269° |
| 2026-05-06 19:47 | 18.46640 | -68.58092 | 19191 ft | 395 kts | 269° |
| 2026-05-06 19:48 | 18.46572 | -68.60956 | 18994 ft | 384 kts | 269° |
| 2026-05-06 19:48 | 18.46505 | -68.63731 | 18877 ft | 371 kts | 269° |
| 2026-05-06 19:48 | 18.46441 | -68.66401 | 18761 ft | 359 kts | 269° |
| 2026-05-06 19:48 | 18.46379 | -68.68992 | 18641 ft | 347 kts | 269° |
| 2026-05-06 19:49 | 18.46319 | -68.71494 | 18536 ft | 335 kts | 269° |
| 2026-05-06 19:49 | 18.46260 | -68.73907 | 18433 ft | 324 kts | 269° |
| 2026-05-06 19:49 | 18.46203 | -68.76240 | 18336 ft | 313 kts | 269° |
| 2026-05-06 19:49 | 18.46148 | -68.78484 | 18234 ft | 306 kts | 269° |
| 2026-05-06 19:50 | 18.46085 | -68.80717 | 18012 ft | 304 kts | 269° |
| 2026-05-06 19:50 | 18.46007 | -68.82949 | 17643 ft | 304 kts | 269° |
| 2026-05-06 19:50 | 18.45928 | -68.85173 | 17305 ft | 303 kts | 269° |
| 2026-05-06 19:50 | 18.45848 | -68.87390 | 16973 ft | 301 kts | 269° |
| 2026-05-06 19:51 | 18.45769 | -68.89593 | 16663 ft | 299 kts | 269° |
| 2026-05-06 19:51 | 18.45692 | -68.91785 | 16369 ft | 297 kts | 269° |
| 2026-05-06 19:51 | 18.45618 | -68.93937 | 16026 ft | 297 kts | 269° |
| 2026-05-06 19:51 | 18.45542 | -68.96113 | 15700 ft | 297 kts | 269° |
| 2026-05-06 19:52 | 18.45465 | -68.98305 | 15333 ft | 298 kts | 269° |
| 2026-05-06 19:52 | 18.45385 | -69.00483 | 14984 ft | 299 kts | 269° |
| 2026-05-06 19:52 | 18.45307 | -69.02692 | 14659 ft | 298 kts | 269° |
| 2026-05-06 19:52 | 18.45229 | -69.04854 | 14321 ft | 299 kts | 269° |
| 2026-05-06 19:53 | 18.45151 | -69.07077 | 13972 ft | 300 kts | 269° |
| 2026-05-06 19:53 | 18.45076 | -69.09276 | 13591 ft | 300 kts | 269° |
| 2026-05-06 19:53 | 18.44998 | -69.11446 | 13232 ft | 299 kts | 269° |
| 2026-05-06 19:53 | 18.44919 | -69.13654 | 12892 ft | 298 kts | 268° |
| 2026-05-06 19:54 | 18.44840 | -69.15817 | 12551 ft | 296 kts | 268° |
| 2026-05-06 19:54 | 18.44761 | -69.17963 | 12256 ft | 294 kts | 268° |
| 2026-05-06 19:54 | 18.44684 | -69.20108 | 11967 ft | 290 kts | 268° |
| 2026-05-06 19:54 | 18.44608 | -69.22187 | 11912 ft | 277 kts | 268° |
| 2026-05-06 19:55 | 18.44535 | -69.24171 | 11835 ft | 265 kts | 268° |
| 2026-05-06 19:55 | 18.44464 | -69.26085 | 11755 ft | 258 kts | 268° |
| 2026-05-06 19:55 | 18.44416 | -69.27978 | 11514 ft | 259 kts | 269° |
| 2026-05-06 19:55 | 18.44387 | -69.29878 | 11221 ft | 259 kts | 269° |
| 2026-05-06 19:56 | 18.44361 | -69.31772 | 10925 ft | 258 kts | 269° |
| 2026-05-06 19:56 | 18.44333 | -69.33661 | 10645 ft | 257 kts | 268° |
| 2026-05-06 19:56 | 18.44302 | -69.35546 | 10364 ft | 257 kts | 268° |
| 2026-05-06 19:56 | 18.44271 | -69.37425 | 10081 ft | 256 kts | 268° |
| 2026-05-06 19:57 | 18.44251 | -69.38668 | 9902 ft | 256 kts | 268° |
| 2026-05-06 19:57 | 18.44220 | -69.40546 | 9587 ft | 256 kts | 267° |
| 2026-05-06 19:57 | 18.44190 | -69.42424 | 9231 ft | 257 kts | 271° |
| 2026-05-06 19:57 | 18.44647 | -69.44224 | 8895 ft | 258 kts | 303° |
| 2026-05-06 19:58 | 18.45899 | -69.45564 | 8579 ft | 258 kts | 321° |
| 2026-05-06 19:58 | 18.47313 | -69.46727 | 8259 ft | 259 kts | 322° |
| 2026-05-06 19:58 | 18.48741 | -69.47896 | 7970 ft | 260 kts | 322° |
| 2026-05-06 19:58 | 18.50160 | -69.49067 | 7687 ft | 259 kts | 322° |
| 2026-05-06 19:59 | 18.51572 | -69.50244 | 7416 ft | 258 kts | 321° |
| 2026-05-06 19:59 | 18.52981 | -69.51423 | 7135 ft | 259 kts | 321° |
| 2026-05-06 19:59 | 18.54389 | -69.52606 | 6857 ft | 259 kts | 321° |
| 2026-05-06 19:59 | 18.55804 | -69.53800 | 6570 ft | 260 kts | 322° |
| 2026-05-06 20:00 | 18.57209 | -69.54986 | 6266 ft | 258 kts | 322° |
| 2026-05-06 20:00 | 18.58614 | -69.56168 | 6008 ft | 258 kts | 322° |
| 2026-05-06 20:00 | 18.60013 | -69.57346 | 5741 ft | 256 kts | 321° |
| 2026-05-06 20:00 | 18.61402 | -69.58517 | 5468 ft | 255 kts | 321° |
| 2026-05-06 20:01 | 18.62782 | -69.59683 | 5214 ft | 253 kts | 321° |
| 2026-05-06 20:01 | 18.64158 | -69.60845 | 4960 ft | 254 kts | 321° |
| 2026-05-06 20:01 | 18.65446 | -69.62116 | 4649 ft | 254 kts | 300° |
| 2026-05-06 20:01 | 18.65906 | -69.63834 | 4332 ft | 245 kts | 262° |
| 2026-05-06 20:02 | 18.65346 | -69.65473 | 4063 ft | 235 kts | 231° |
| 2026-05-06 20:02 | 18.64401 | -69.66854 | 3832 ft | 229 kts | 231° |
| 2026-05-06 20:02 | 18.63472 | -69.68208 | 3587 ft | 226 kts | 231° |
| 2026-05-06 20:02 | 18.62564 | -69.69559 | 3357 ft | 225 kts | 232° |
| 2026-05-06 20:03 | 18.61670 | -69.70914 | 3094 ft | 225 kts | 232° |
| 2026-05-06 20:03 | 18.60764 | -69.72232 | 2962 ft | 214 kts | 223° |
| 2026-05-06 20:03 | 18.59548 | -69.72883 | 2963 ft | 188 kts | 183° |
| 2026-05-06 20:03 | 18.58324 | -69.72681 | 2798 ft | 174 kts | 161° |
| 2026-05-06 20:04 | 18.57201 | -69.72249 | 2661 ft | 171 kts | 159° |
| 2026-05-06 20:04 | 18.56084 | -69.71812 | 2487 ft | 172 kts | 159° |
| 2026-05-06 20:04 | 18.54978 | -69.71385 | 2200 ft | 170 kts | 159° |
| 2026-05-06 20:04 | 18.53869 | -69.70963 | 2006 ft | 169 kts | 159° |
| 2026-05-06 20:05 | 18.52773 | -69.70555 | 1788 ft | 163 kts | 159° |
| 2026-05-06 20:05 | 18.51730 | -69.70160 | 1546 ft | 155 kts | 160° |
| 2026-05-06 20:05 | 18.50735 | -69.69782 | 1322 ft | 148 kts | 161° |
| 2026-05-06 20:05 | 18.49767 | -69.69424 | 1142 ft | 146 kts | 161° |
| 2026-05-06 20:06 | 18.48808 | -69.69076 | 979 ft | 146 kts | 160° |
| 2026-05-06 20:06 | 18.47857 | -69.68703 | 810 ft | 146 kts | 160° |
| 2026-05-06 20:06 | 18.46912 | -69.68334 | 662 ft | 145 kts | 160° |
| 2026-05-06 20:06 | 18.45954 | -69.67980 | 409 ft | 144 kts | 160° |
| 2026-05-06 20:07 | 18.45018 | -69.67623 | 264 ft | 142 kts | 162° |
| 2026-05-06 20:07 | 18.44085 | -69.67297 | 88 ft | 136 kts | 161° |
| 2026-05-06 20:07 | 18.43309 | -69.67015 | 82 ft | 91 kts | 161° |
| 2026-05-06 20:07 | 18.42875 | -69.66858 | 74 ft | 50 kts | 161° |
| 2026-05-06 20:08 | 18.42558 | -69.66743 | 71 ft | 45 kts | 161° |
| 2026-05-06 20:08 | 18.42324 | -69.66665 | 72 ft | 23 kts | 175° |
| 2026-05-06 20:08 | 18.42232 | -69.66727 | 73 ft | 15 kts | 269° |
| 2026-05-06 20:08 | 18.42288 | -69.66829 | 68 ft | 18 kts | 324° |
| 2026-05-06 20:09 | 18.42412 | -69.66884 | 68 ft | 21 kts | 342° |
| 2026-05-06 20:09 | 18.42557 | -69.66938 | 71 ft | 23 kts | 340° |
| 2026-05-06 20:09 | 18.42718 | -69.66998 | 73 ft | 26 kts | 340° |
| 2026-05-06 20:09 | 18.42893 | -69.67064 | 70 ft | 28 kts | 340° |
| 2026-05-06 20:10 | 18.43088 | -69.67138 | 67 ft | 31 kts | 340° |
| 2026-05-06 20:10 | 18.43296 | -69.67217 | 64 ft | 29 kts | 340° |
| 2026-05-06 20:10 | 18.43472 | -69.67284 | 64 ft | 16 kts | 333° |
| 2026-05-06 20:10 | 18.43493 | -69.67360 | 64 ft | 13 kts | 248° |
| 2026-05-06 20:11 | 18.43426 | -69.67449 | 59 ft | 18 kts | 226° |
| 2026-05-06 20:11 | 18.43316 | -69.67511 | 58 ft | 15 kts | 187° |
| 2026-05-06 20:11 | 18.43272 | -69.67517 | 64 ft | 2 kts | 186° |
| 2026-05-06 20:11 | 18.43230 | -69.67508 | 62 ft | 9 kts | 173° |
| 2026-05-06 20:12 | 18.43203 | -69.67515 | 60 ft | 0 kts | 214° |
| 2026-05-06 20:12 | 18.43202 | -69.67516 | 60 ft | 1 kts | 215° |
| 2026-05-06 20:12 | 18.43189 | -69.67527 | 64 ft | 0 kts | 233° |
| 2026-05-06 20:12 | 18.43169 | -69.67554 | 63 ft | 1 kts | 236° |
| 2026-05-06 20:13 | 18.43165 | -69.67561 | 65 ft | 1 kts | 243° |
| 2026-05-06 20:13 | 18.43162 | -69.67569 | 65 ft | 0 kts | 242° |